Time;durP1;ratioP1;P1;durP2;ratioP2;P2;SDS_P1;SDS_P2;PMS_P1;PMS_P2;Temp;Humidity;BMP_temperature;BMP_pressure;BME280_temperature;BME280_humidity;BME280_pressure;Samples;Min_cycle;Max_cycle;Signal;HPM_P1;HPM_P2
2021/04/04 00:01:12;;;;;;;10.73;4.53;;;;;;;-0.56;73.32;100893.56;104582;1101;82668;-64
2021/04/04 00:03:17;;;;;;;13.40;6.28;;;;;;;-0.55;73.01;100890.81;104582;1101;71952;-62
2021/04/04 00:05:23;;;;;;;13.10;6.20;;;;;;;-0.55;73.24;100887.31;104577;1102;85179;-65
2021/04/04 00:07:33;;;;;;;11.73;6.33;;;;;;;-0.55;73.38;100882.86;104529;1101;79130;-66
2021/04/04 00:09:38;;;;;;;13.25;5.32;;;;;;;-0.51;74.13;100888.78;104546;1101;64138;-63
2021/04/04 00:11:44;;;;;;;11.27;4.55;;;;;;;-0.50;73.64;100882.52;104528;1102;80731;-63
2021/04/04 00:13:49;;;;;;;13.77;6.07;;;;;;;-0.53;74.10;100878.28;104544;1102;71033;-63
2021/04/04 00:15:56;;;;;;;15.63;7.00;;;;;;;-0.52;73.87;100884.45;104564;1101;84199;-66
2021/04/04 00:18:01;;;;;;;11.03;6.50;;;;;;;-0.53;73.77;100880.94;104571;1101;78762;-68
2021/04/04 00:20:10;;;;;;;10.23;5.00;;;;;;;-0.55;73.92;100882.86;104549;1102;64115;-67
2021/04/04 00:22:16;;;;;;;9.93;4.93;;;;;;;-0.58;73.56;100882.21;104551;1101;81100;-67
2021/04/04 00:24:23;;;;;;;10.57;5.20;;;;;;;-0.58;73.62;100884.87;104536;1101;70883;-64
2021/04/04 00:26:28;;;;;;;10.32;5.07;;;;;;;-0.58;74.40;100882.21;104550;1102;84870;-66
2021/04/04 00:28:33;;;;;;;9.07;4.10;;;;;;;-0.57;74.06;100884.75;104528;1102;78881;-67
2021/04/04 00:30:39;;;;;;;11.45;5.40;;;;;;;-0.59;74.14;100884.02;104586;1102;63990;-64
2021/04/04 00:32:48;;;;;;;8.93;4.57;;;;;;;-0.60;73.84;100883.16;104542;1101;80595;-63
2021/04/04 00:34:54;;;;;;;9.45;4.57;;;;;;;-0.60;73.77;100877.00;104590;1101;70460;-67
2021/04/04 00:37:00;;;;;;;9.57;4.57;;;;;;;-0.63;73.96;100882.52;104583;1102;84727;-67
2021/04/04 00:39:10;;;;;;;11.77;4.80;;;;;;;-0.64;73.81;100879.03;104541;1101;78201;-67
2021/04/04 00:41:16;;;;;;;11.15;4.95;;;;;;;-0.64;73.94;100886.14;104571;1101;64352;-69
2021/04/04 00:43:21;;;;;;;12.17;5.17;;;;;;;-0.63;74.11;100882.52;104544;1102;82966;-68
2021/04/04 00:45:29;;;;;;;8.55;4.10;;;;;;;-0.66;74.39;100883.58;104586;1101;71302;-69
2021/04/04 00:47:34;;;;;;;10.10;4.70;;;;;;;-0.69;74.35;100878.48;104544;1102;83557;-68
2021/04/04 00:49:42;;;;;;;8.52;4.13;;;;;;;-0.69;74.22;100878.48;104534;1101;78480;-62
2021/04/04 00:51:51;;;;;;;11.02;4.63;;;;;;;-0.69;74.09;100886.44;104570;1104;64153;-63
2021/04/04 00:53:56;;;;;;;9.27;3.95;;;;;;;-0.69;74.30;100889.09;104543;1101;81805;-63
2021/04/04 00:56:03;;;;;;;8.23;3.80;;;;;;;-0.69;74.31;100891.74;104524;1102;72149;-68
2021/04/04 00:58:08;;;;;;;7.83;3.40;;;;;;;-0.69;74.04;100890.92;104594;1101;84806;-63
2021/04/04 01:00:25;;;;;;;7.80;3.50;;;;;;;-0.69;74.27;100890.92;104574;1101;78071;-63
2021/04/04 01:02:30;;;;;;;8.00;3.35;;;;;;;-0.67;74.64;100889.86;104558;1101;64115;-67
2021/04/04 01:04:38;;;;;;;10.23;4.00;;;;;;;-0.64;75.13;100892.30;104545;1101;82673;-63
2021/04/04 01:06:46;;;;;;;11.55;5.25;;;;;;;-0.56;75.22;100898.86;104563;1104;72433;-63
2021/04/04 01:08:52;;;;;;;17.48;5.85;;;;;;;-0.47;75.22;100892.93;104594;1101;85339;-63
2021/04/04 01:11:02;;;;;;;11.27;5.67;;;;;;;-0.37;75.36;100894.83;104535;1101;79457;-62
2021/04/04 01:13:20;;;;;;;9.70;4.85;;;;;;;-0.26;75.68;100900.23;104542;1102;64105;-67
2021/04/04 01:15:33;;;;;;;8.50;3.85;;;;;;;-0.14;75.20;100901.17;104560;1101;80520;-66
2021/04/04 01:17:41;;;;;;;10.90;3.78;;;;;;;-0.04;75.34;100897.75;104587;1101;71138;-64
2021/04/04 01:20:10;;;;;;;15.43;6.63;;;;;;;0.08;75.68;100898.68;104599;1101;84068;-68
2021/04/04 01:22:54;;;;;;;13.48;5.00;;;;;;;0.19;75.36;100896.09;104531;1101;79010;-68
2021/04/04 01:25:09;;;;;;;13.65;5.63;;;;;;;0.33;75.82;100892.44;104636;1101;64015;-68
2021/04/04 01:27:25;;;;;;;13.40;6.63;;;;;;;0.44;75.26;100888.01;104504;1104;81595;-70
2021/04/04 01:29:34;;;;;;;12.77;6.30;;;;;;;0.51;75.34;100885.76;104518;1104;71542;-67
2021/04/04 01:31:41;;;;;;;9.53;4.80;;;;;;;0.52;75.24;100875.00;104534;1104;83348;-69
2021/04/04 01:33:52;;;;;;;15.52;7.30;;;;;;;0.53;75.73;100876.70;104502;1104;78254;-69
2021/04/04 01:36:01;;;;;;;13.13;6.15;;;;;;;0.55;74.92;100880.09;104557;1101;64093;-68
2021/04/04 01:38:12;;;;;;;11.38;4.65;;;;;;;0.46;75.08;100886.11;104643;1101;81762;-68
2021/04/04 01:40:19;;;;;;;9.98;5.07;;;;;;;0.37;75.03;100878.80;104521;1104;71995;-63
2021/04/04 01:42:25;;;;;;;8.35;4.10;;;;;;;0.33;74.79;100887.95;104554;1101;84900;-63
2021/04/04 01:44:31;;;;;;;10.35;3.95;;;;;;;0.31;75.01;100881.91;104506;1104;77208;-64
2021/04/04 01:46:38;;;;;;;8.38;3.45;;;;;;;0.31;75.27;100892.53;104546;1101;64156;-67
2021/04/04 01:48:45;;;;;;;8.55;3.30;;;;;;;0.36;75.67;100893.04;104497;1104;81223;-67
2021/04/04 01:50:52;;;;;;;6.57;3.42;;;;;;;0.42;75.00;100889.94;104502;1104;72256;-67
2021/04/04 01:52:58;;;;;;;6.33;3.43;;;;;;;0.47;75.30;100882.47;104552;1102;83890;-63
2021/04/04 01:55:12;;;;;;;6.87;3.10;;;;;;;0.53;75.51;100887.34;104487;1101;78090;-63
2021/04/04 01:57:19;;;;;;;10.45;2.95;;;;;;;0.50;75.08;100884.05;104539;1104;64182;-63
2021/04/04 01:59:32;;;;;;;9.13;3.78;;;;;;;0.51;75.55;100883.09;104487;1104;81148;-63
2021/04/04 02:01:38;;;;;;;6.90;2.88;;;;;;;0.48;75.15;100884.17;104538;1104;70811;-66
2021/04/04 02:03:44;;;;;;;5.03;2.67;;;;;;;0.51;75.53;100885.76;104494;1104;83426;-67
2021/04/04 02:05:52;;;;;;;6.30;2.90;;;;;;;0.50;75.59;100900.00;104520;1104;77611;-68
2021/04/04 02:07:59;;;;;;;5.38;2.63;;;;;;;0.49;75.29;100890.34;104516;1104;64389;-67
2021/04/04 02:10:08;;;;;;;7.97;3.97;;;;;;;0.47;75.36;100894.90;104525;1104;80842;-67
2021/04/04 02:12:14;;;;;;;5.82;2.83;;;;;;;0.55;75.16;100896.03;104519;1104;71544;-66
2021/04/04 02:14:25;;;;;;;6.93;2.65;;;;;;;0.57;75.68;100903.91;104516;1104;84719;-66
2021/04/04 02:16:31;;;;;;;8.80;2.60;;;;;;;0.62;75.53;100900.91;104498;1104;78189;-62
2021/04/04 02:18:37;;;;;;;6.90;2.80;;;;;;;0.67;75.56;100893.43;104510;1104;64118;-61
2021/04/04 02:20:43;;;;;;;5.75;2.67;;;;;;;0.70;75.83;100894.06;104512;1104;80731;-63
2021/04/04 02:22:52;;;;;;;9.00;2.70;;;;;;;0.71;75.92;100895.77;104532;1104;70760;-64
2021/04/04 02:25:00;;;;;;;8.40;2.78;;;;;;;0.73;75.78;100890.32;104493;1105;84707;-67
2021/04/04 02:27:06;;;;;;;8.00;3.28;;;;;;;0.77;75.67;100891.80;104503;1104;78347;-66
2021/04/04 02:29:12;;;;;;;8.98;3.05;;;;;;;0.84;75.23;100885.05;104515;1104;64256;-65
2021/04/04 02:31:19;;;;;;;7.32;2.95;;;;;;;0.85;75.65;100887.58;104479;1104;80799;-63
2021/04/04 02:33:29;;;;;;;5.45;2.78;;;;;;;0.85;75.69;100884.92;104506;1104;71406;-63
2021/04/04 02:35:40;;;;;;;8.23;2.92;;;;;;;0.88;75.24;100891.84;104509;1104;84209;-63
2021/04/04 02:37:47;;;;;;;6.47;2.90;;;;;;;0.95;75.40;100893.06;104515;1104;77516;-62
2021/04/04 02:39:59;;;;;;;5.63;2.83;;;;;;;0.96;75.37;100890.27;104506;1104;64108;-67
2021/04/04 02:42:06;;;;;;;8.50;3.25;;;;;;;0.95;75.65;100887.74;104518;1104;82319;-68
2021/04/04 02:44:13;;;;;;;6.82;3.00;;;;;;;0.96;75.32;100886.80;104524;1104;71075;-68
2021/04/04 02:46:22;;;;;;;6.45;3.08;;;;;;;1.02;75.29;100894.28;104504;1104;84587;-67
2021/04/04 02:48:34;;;;;;;4.87;2.53;;;;;;;1.05;75.58;100904.69;104496;1104;79085;-67
2021/04/04 02:50:41;;;;;;;5.50;3.10;;;;;;;1.08;75.60;100901.80;104522;1104;64115;-66
2021/04/04 02:52:51;;;;;;;7.10;3.60;;;;;;;1.11;75.78;100890.93;104531;1104;81125;-66
2021/04/04 02:54:59;;;;;;;7.57;3.25;;;;;;;1.14;76.09;100902.20;104532;1104;71954;-67
2021/04/04 02:57:07;;;;;;;7.00;3.22;;;;;;;1.10;75.61;100902.52;104522;1105;85722;-67
2021/04/04 02:59:24;;;;;;;6.07;3.08;;;;;;;1.09;76.03;100890.20;104495;1104;77518;-66
2021/04/04 03:01:32;;;;;;;6.78;3.53;;;;;;;1.11;75.86;100896.25;104507;1104;64422;-66
2021/04/04 03:03:40;;;;;;;6.85;3.70;;;;;;;1.15;75.89;100900.39;104499;1104;81518;-67
2021/04/04 03:05:48;;;;;;;7.63;3.90;;;;;;;1.17;75.99;100901.97;104536;1104;70958;-63
2021/04/04 03:07:55;;;;;;;6.57;3.37;;;;;;;1.20;75.66;100906.20;104556;1103;84883;-64
2021/04/04 03:10:07;;;;;;;8.25;3.17;;;;;;;1.24;75.75;100904.16;104466;1104;78297;-64
2021/04/04 03:12:17;;;;;;;7.18;3.35;;;;;;;1.26;75.81;100907.55;104508;1104;64269;-63
2021/04/04 03:14:27;;;;;;;7.00;3.30;;;;;;;1.27;75.78;100910.08;104510;1104;82103;-64
2021/04/04 03:16:35;;;;;;;7.13;2.95;;;;;;;1.28;75.55;100916.25;104540;1104;71174;-67
2021/04/04 03:18:43;;;;;;;7.57;3.37;;;;;;;1.25;75.56;100920.00;104530;1104;83651;-67
2021/04/04 03:20:49;;;;;;;6.83;3.40;;;;;;;1.31;75.19;100927.52;104489;1104;78151;-67
2021/04/04 03:22:57;;;;;;;7.32;3.80;;;;;;;1.35;75.30;100922.78;104489;1104;64112;-69
2021/04/04 03:25:05;;;;;;;7.13;3.58;;;;;;;1.36;75.30;100930.67;104511;1104;81771;-68
2021/04/04 03:27:12;;;;;;;7.33;4.17;;;;;;;1.38;75.19;100927.88;104478;1104;72086;-68
2021/04/04 03:29:21;;;;;;;7.03;3.10;;;;;;;1.41;75.15;100932.97;104530;1105;84906;-67
2021/04/04 03:31:30;;;;;;;6.83;3.63;;;;;;;1.37;75.71;100926.20;104496;1104;77681;-67
2021/04/04 03:33:36;;;;;;;9.57;3.80;;;;;;;1.35;75.78;100928.96;104538;1104;64719;-68
2021/04/04 03:35:45;;;;;;;6.53;3.45;;;;;;;1.33;76.27;100927.39;104506;1104;81421;-63
2021/04/04 03:37:52;;;;;;;8.48;3.72;;;;;;;1.32;75.85;100917.73;104510;1104;72097;-62
2021/04/04 03:39:58;;;;;;;6.67;3.50;;;;;;;1.33;75.77;100919.41;104508;1104;84522;-68
2021/04/04 03:42:05;;;;;;;7.35;3.72;;;;;;;1.33;75.94;100914.94;104464;1104;77644;-68
2021/04/04 03:44:13;;;;;;;8.93;3.50;;;;;;;1.30;75.92;100916.97;104517;1104;64108;-68
2021/04/04 03:46:25;;;;;;;5.00;3.90;;;;;;;1.32;75.82;100921.21;104554;1104;82343;-63
2021/04/04 03:48:32;;;;;;;5.35;3.22;;;;;;;1.35;75.77;100914.80;104517;1104;71476;-63
2021/04/04 03:50:39;;;;;;;6.55;3.10;;;;;;;1.38;75.76;100912.76;104530;1104;84349;-63
2021/04/04 03:52:50;;;;;;;6.03;3.10;;;;;;;1.40;75.32;100915.32;104513;1104;77634;-63
2021/04/04 03:54:56;;;;;;;6.88;3.47;;;;;;;1.43;75.43;100921.23;104550;1104;64314;-67
2021/04/04 03:57:07;;;;;;;6.35;3.55;;;;;;;1.42;75.49;100916.05;104512;1104;81411;-68
2021/04/04 03:59:14;;;;;;;8.03;3.93;;;;;;;1.40;75.63;100926.79;104543;1104;71580;-67
2021/04/04 04:01:25;;;;;;;7.23;3.73;;;;;;;1.37;75.36;100921.73;104491;1104;83232;-62
2021/04/04 04:03:32;;;;;;;5.73;3.10;;;;;;;1.40;75.50;100923.30;104507;1104;79839;-63
2021/04/04 04:05:38;;;;;;;7.93;3.30;;;;;;;1.42;75.87;100918.70;104508;1104;64236;-64
2021/04/04 04:07:47;;;;;;;6.50;3.63;;;;;;;1.44;75.85;100916.77;104493;1104;82018;-63
2021/04/04 04:09:53;;;;;;;7.07;3.53;;;;;;;1.42;75.83;100921.37;104571;1103;71970;-62
2021/04/04 04:12:00;;;;;;;8.17;3.77;;;;;;;1.40;75.84;100921.47;104525;1104;84768;-63
2021/04/04 04:14:12;;;;;;;8.53;4.33;;;;;;;1.42;75.31;100924.88;104470;1104;78541;-62
2021/04/04 04:16:18;;;;;;;6.65;3.20;;;;;;;1.47;75.71;100927.17;104523;1104;64246;-67
2021/04/04 04:18:24;;;;;;;7.10;3.78;;;;;;;1.49;75.58;100934.08;104509;1104;81571;-67
2021/04/04 04:20:30;;;;;;;5.30;3.10;;;;;;;1.54;75.36;100939.89;104485;1104;71308;-62
2021/04/04 04:22:36;;;;;;;6.63;3.90;;;;;;;1.54;75.78;100941.73;104555;1104;84286;-64
2021/04/04 04:24:42;;;;;;;8.40;3.63;;;;;;;1.54;75.50;100939.06;104465;1104;77615;-66
2021/04/04 04:26:49;;;;;;;5.38;3.50;;;;;;;1.56;75.68;100931.80;104528;1104;64645;-68
2021/04/04 04:28:55;;;;;;;7.50;4.18;;;;;;;1.54;76.02;100934.56;104510;1104;82122;-67
2021/04/04 04:31:09;;;;;;;6.35;4.30;;;;;;;1.56;75.65;100931.80;104505;1104;72289;-63
2021/04/04 04:33:20;;;;;;;7.28;3.25;;;;;;;1.56;75.87;100923.81;104552;1104;83387;-63
2021/04/04 04:35:30;;;;;;;6.53;3.80;;;;;;;1.63;75.50;100923.21;104481;1104;77643;-63
2021/04/04 04:37:39;;;;;;;8.35;3.78;;;;;;;1.63;75.48;100922.36;104523;1104;64074;-63
2021/04/04 04:39:44;;;;;;;6.03;3.17;;;;;;;1.66;75.60;100917.64;104528;1104;81687;-63
2021/04/04 04:41:54;;;;;;;6.93;3.87;;;;;;;1.67;75.56;100913.17;104528;1104;71086;-64
2021/04/04 04:44:03;;;;;;;7.80;4.07;;;;;;;1.69;75.38;100914.75;104498;1104;84229;-63
2021/04/04 04:46:09;;;;;;;7.50;3.90;;;;;;;1.68;75.37;100906.86;104528;1103;77723;-68
2021/04/04 04:48:18;;;;;;;7.43;4.20;;;;;;;1.73;75.40;100915.36;104536;1104;64108;-68
2021/04/04 04:50:24;;;;;;;8.05;4.25;;;;;;;1.77;75.59;100920.32;104471;1104;80762;-62
2021/04/04 04:52:31;;;;;;;7.67;4.03;;;;;;;1.79;75.65;100909.53;104536;1104;71563;-63
2021/04/04 04:54:36;;;;;;;10.88;6.28;;;;;;;1.81;75.26;100920.08;104534;1104;84266;-68
2021/04/04 04:56:45;;;;;;;50.70;31.60;;;;;;;1.80;75.47;100924.55;104427;1104;78145;-68
2021/04/04 04:58:51;;;;;;;49.60;26.08;;;;;;;1.73;75.77;100929.50;104543;1104;64639;-68
2021/04/04 05:01:01;;;;;;;80.60;39.77;;;;;;;1.77;75.54;100930.12;104492;1104;81824;-68
2021/04/04 05:03:10;;;;;;;42.77;22.97;;;;;;;1.78;75.31;100922.02;104526;1103;70917;-68
2021/04/04 05:05:18;;;;;;;46.10;28.97;;;;;;;1.86;75.32;100923.22;104550;1104;84842;-63
2021/04/04 05:07:24;;;;;;;32.30;20.40;;;;;;;1.90;75.32;100927.32;104514;1104;78146;-63
2021/04/04 05:09:33;;;;;;;25.73;17.17;;;;;;;1.87;75.52;100925.75;104541;1104;64614;-65
2021/04/04 05:11:45;;;;;;;37.08;23.80;;;;;;;1.84;75.73;100925.17;104490;1104;80862;-63
2021/04/04 05:13:57;;;;;;;28.30;18.15;;;;;;;1.89;75.62;100928.31;104537;1104;72270;-63
2021/04/04 05:16:09;;;;;;;16.13;10.80;;;;;;;1.94;75.29;100934.12;104545;1104;83533;-63
2021/04/04 05:18:15;;;;;;;16.53;10.63;;;;;;;1.98;75.65;100940.91;104486;1104;78337;-62
2021/04/04 05:20:22;;;;;;;11.32;8.02;;;;;;;1.92;75.24;100939.58;104480;1105;65324;-60
2021/04/04 05:22:27;;;;;;;10.23;6.83;;;;;;;1.91;75.29;100947.67;104522;1104;81330;-63
2021/04/04 05:24:35;;;;;;;15.23;8.80;;;;;;;1.90;75.32;100943.30;104489;1104;71759;-67
2021/04/04 05:26:42;;;;;;;15.45;12.43;;;;;;;1.91;75.76;100947.67;104526;1104;83962;-70
2021/04/04 05:28:48;;;;;;;16.00;13.95;;;;;;;1.92;75.57;100949.39;104469;1105;78111;-67
2021/04/04 05:30:53;;;;;;;11.43;8.33;;;;;;;1.93;75.85;100956.39;104446;1104;64188;-63
2021/04/04 05:32:59;;;;;;;12.45;8.25;;;;;;;1.93;75.84;100951.91;104498;1104;80789;-63
2021/04/04 05:35:18;;;;;;;10.00;6.93;;;;;;;1.92;75.70;100952.05;104561;1104;73091;-63
2021/04/04 05:37:23;;;;;;;13.52;9.45;;;;;;;1.96;75.55;100946.34;101848;1105;3010205;-63
2021/04/04 05:39:34;;;;;;;12.10;8.13;;;;;;;2.06;75.29;100957.14;104475;1104;77868;-66
2021/04/04 05:41:42;;;;;;;12.20;7.75;;;;;;;2.09;75.55;100951.54;104505;1104;64294;-68
2021/04/04 05:43:58;;;;;;;9.50;5.93;;;;;;;2.14;75.35;100954.72;104502;1104;81592;-68
2021/04/04 05:46:09;;;;;;;10.55;5.95;;;;;;;2.11;75.35;100958.47;104499;1104;72094;-61
2021/04/04 05:48:34;;;;;;;8.80;6.68;;;;;;;2.11;75.38;100957.62;104494;1104;83910;-63
2021/04/04 05:51:10;;;;;;;9.83;6.43;;;;;;;2.15;75.22;100959.91;104530;1104;77879;-64
2021/04/04 05:53:28;;;;;;;50.20;29.95;;;;;;;2.16;75.25;100952.77;104518;1105;65244;-63
2021/04/04 05:55:47;;;;;;;25.02;15.23;;;;;;;2.25;74.90;100955.53;104504;1103;82257;-68
2021/04/04 05:57:58;;;;;;;49.77;26.00;;;;;;;2.30;75.17;100963.18;104487;1105;72331;-67
2021/04/04 06:00:09;;;;;;;56.67;32.40;;;;;;;2.29;75.42;100959.66;104533;1105;85068;-68
2021/04/04 06:03:03;;;;;;;58.97;33.70;;;;;;;2.31;75.37;100960.38;104474;1104;79842;-68
2021/04/04 06:05:29;;;;;;;40.65;23.85;;;;;;;2.50;75.18;100966.91;104513;1103;64249;-63
2021/04/04 06:07:59;;;;;;;58.30;34.60;;;;;;;2.54;75.08;100961.20;104525;1104;82995;-63
2021/04/04 06:10:08;;;;;;;64.13;42.85;;;;;;;2.56;75.04;100969.91;104536;1104;71278;-62
2021/04/04 06:12:24;;;;;;;41.20;27.33;;;;;;;2.62;75.03;100964.09;104536;1105;84721;-63
2021/04/04 06:14:53;;;;;;;24.70;14.73;;;;;;;2.66;74.99;100965.55;104510;1104;78330;-66
2021/04/04 06:17:10;;;;;;;31.92;20.60;;;;;;;2.76;74.97;100968.30;104504;1105;64189;-66
2021/04/04 06:19:36;;;;;;;11.98;7.45;;;;;;;2.82;74.96;100968.65;104510;1104;81576;-65
2021/04/04 06:21:52;;;;;;;19.63;11.55;;;;;;;2.86;74.70;100964.73;104510;1104;71991;-63
2021/04/04 06:24:15;;;;;;;12.35;8.50;;;;;;;2.91;74.39;100965.20;104508;1103;84134;-63
2021/04/04 06:26:39;;;;;;;15.70;8.60;;;;;;;3.08;74.39;100965.66;104439;1104;78719;-62
2021/04/04 06:29:00;;;;;;;33.72;21.83;;;;;;;3.20;74.47;100965.47;104493;1104;64349;-62
2021/04/04 06:31:25;;;;;;;16.25;9.63;;;;;;;3.24;74.36;100969.55;104491;1104;81552;-62
2021/04/04 06:33:40;;;;;;;13.35;9.55;;;;;;;3.30;74.39;100968.19;104526;1104;72491;-62
2021/04/04 06:36:15;;;;;;;14.03;7.60;;;;;;;3.40;74.05;100961.13;104526;1104;85384;-67
2021/04/04 06:39:06;;;;;;;16.70;11.23;;;;;;;3.44;73.92;100971.41;104477;1104;78137;-69
2021/04/04 06:41:33;;;;;;;14.02;8.13;;;;;;;3.61;73.98;100969.13;104517;1104;64278;-62
2021/04/04 06:43:51;;;;;;;10.00;7.40;;;;;;;3.72;73.61;100966.38;104474;1104;82158;-64
2021/04/04 06:46:13;;;;;;;11.80;7.47;;;;;;;3.73;73.35;100966.27;104501;1104;72049;-74
2021/04/04 06:48:59;;;;;;;9.45;6.15;;;;;;;3.84;73.27;100970.68;104499;1104;85594;-73
2021/04/04 06:51:15;;;;;;;10.73;7.43;;;;;;;3.90;73.11;100965.63;104510;1104;78154;-62
2021/04/04 06:53:40;;;;;;;10.07;7.82;;;;;;;3.95;72.86;100971.45;104518;1104;64112;-63
2021/04/04 06:55:58;;;;;;;10.57;6.97;;;;;;;3.94;72.56;100977.77;104523;1104;81300;-74
2021/04/04 06:58:20;;;;;;;9.35;6.90;;;;;;;3.96;72.54;100973.13;104528;1104;71703;-73
2021/04/04 07:00:38;;;;;;;8.60;5.47;;;;;;;3.94;72.43;100969.75;104525;1104;83191;-67
2021/04/04 07:02:58;;;;;;;8.63;6.37;;;;;;;4.00;72.23;100981.73;104494;1104;77418;-66
2021/04/04 07:05:10;;;;;;;9.02;6.90;;;;;;;4.13;72.02;100980.53;104567;1104;64233;-63
2021/04/04 07:07:51;;;;;;;9.07;6.38;;;;;;;4.13;71.83;100980.53;104510;1104;81762;-62
2021/04/04 07:10:32;;;;;;;12.40;7.67;;;;;;;4.29;71.86;100984.52;104483;1104;72100;-63
2021/04/04 07:12:59;;;;;;;11.30;7.75;;;;;;;4.31;71.71;100982.58;104494;1104;84045;-63
2021/04/04 07:15:20;;;;;;;10.95;6.55;;;;;;;4.64;71.87;100988.44;104524;1104;78349;-68
2021/04/04 07:17:48;;;;;;;10.20;6.60;;;;;;;4.91;71.31;100982.46;104520;1104;64115;-68
2021/04/04 07:20:12;;;;;;;9.25;6.93;;;;;;;5.14;71.17;100986.55;104521;1104;82157;-68
2021/04/04 07:22:49;;;;;;;9.88;6.72;;;;;;;5.38;70.41;100987.98;104478;1103;72139;-66
2021/04/04 07:25:26;;;;;;;11.20;8.10;;;;;;;5.63;70.51;100993.58;104506;1104;84216;-66
2021/04/04 07:27:57;;;;;;;11.23;7.93;;;;;;;5.79;70.12;100993.86;104518;1104;77930;-64
2021/04/04 07:30:29;;;;;;;11.45;7.90;;;;;;;5.92;70.05;100991.74;104514;1104;64207;-65
2021/04/04 07:32:46;;;;;;;10.27;7.72;;;;;;;6.54;69.57;100993.75;104509;1104;80846;-67
2021/04/04 07:35:05;;;;;;;11.23;8.50;;;;;;;7.08;68.75;100983.97;104543;1104;71685;-61
2021/04/04 07:37:29;;;;;;;10.13;7.65;;;;;;;8.62;68.18;100989.47;104507;1104;84490;-62
2021/04/04 07:39:44;;;;;;;9.43;6.05;;;;;;;9.52;67.03;100985.95;104486;1104;77877;-62
2021/04/04 07:42:01;;;;;;;8.38;5.90;;;;;;;9.45;64.99;100980.38;104511;1104;64294;-62
2021/04/04 07:44:23;;;;;;;8.63;6.05;;;;;;;9.19;63.83;100989.63;104491;1104;81675;-63
2021/04/04 07:46:47;;;;;;;9.25;7.32;;;;;;;8.96;63.63;100992.09;104521;1104;72654;-67
2021/04/04 07:49:39;;;;;;;8.38;6.30;;;;;;;9.52;63.88;100979.70;104499;1104;85143;-68
2021/04/04 07:51:50;;;;;;;9.20;7.68;;;;;;;10.27;61.13;100983.88;104376;1104;77690;-62
2021/04/04 07:54:04;;;;;;;9.70;6.90;;;;;;;9.49;60.04;100986.28;104526;1104;64083;-63
2021/04/04 07:56:17;;;;;;;9.37;8.00;;;;;;;9.14;60.42;100991.98;104522;1104;81724;-64
2021/04/04 07:58:30;;;;;;;9.30;6.28;;;;;;;11.18;60.60;100983.09;104511;1104;70724;-61
2021/04/04 08:00:39;;;;;;;6.03;5.20;;;;;;;13.40;55.80;100978.51;104480;1104;84190;-66
2021/04/04 08:02:53;;;;;;;6.88;5.15;;;;;;;14.89;53.17;100974.34;104508;1104;76970;-67
2021/04/04 08:05:07;;;;;;;7.63;4.70;;;;;;;16.02;49.82;100968.91;104543;1104;64233;-68
2021/04/04 08:07:20;;;;;;;5.55;4.10;;;;;;;16.55;49.03;100980.61;104528;1104;82403;-71
2021/04/04 08:09:45;;;;;;;4.85;4.30;;;;;;;16.84;46.78;100963.70;104528;1104;72472;-67
2021/04/04 08:12:11;;;;;;;5.65;4.60;;;;;;;17.99;47.53;100968.86;104517;1104;85098;-62
2021/04/04 08:14:23;;;;;;;6.00;4.10;;;;;;;18.43;43.69;100969.73;104482;1104;78484;-61
2021/04/04 08:16:42;;;;;;;5.63;3.57;;;;;;;18.72;42.10;100967.10;104559;1104;64106;-68
2021/04/04 08:18:48;;;;;;;3.90;3.28;;;;;;;18.70;39.40;100966.50;104478;1104;81220;-68
2021/04/04 08:21:00;;;;;;;4.97;4.00;;;;;;;18.52;38.22;100971.11;104522;1104;71418;-69
2021/04/04 08:23:18;;;;;;;4.47;4.00;;;;;;;18.79;37.53;100964.27;104519;1104;83477;-68
2021/04/04 08:25:39;;;;;;;5.25;3.67;;;;;;;18.91;37.58;100962.44;104455;1104;77320;-68
2021/04/04 08:27:55;;;;;;;5.53;4.50;;;;;;;19.79;38.75;100960.76;104482;1104;64269;-70
2021/04/04 08:30:11;;;;;;;4.32;3.85;;;;;;;19.68;36.36;100957.98;104518;1104;81287;-66
2021/04/04 08:32:24;;;;;;;4.32;3.10;;;;;;;19.70;36.06;100945.72;104511;1104;71421;-66
2021/04/04 08:34:38;;;;;;;-1.00;-1.00;;;;;;;19.46;34.53;100948.64;104510;1104;84203;-65
2021/04/04 08:36:51;;;;;;;3.50;2.17;;;;;;;19.56;33.01;100944.25;104488;1104;79037;-68
2021/04/04 08:38:59;;;;;;;3.90;2.33;;;;;;;19.92;33.53;100943.23;104526;1104;64112;-71
2021/04/04 08:41:08;;;;;;;2.15;1.63;;;;;;;19.97;32.37;100929.64;104509;1104;81948;-64
2021/04/04 08:43:17;;;;;;;3.20;1.77;;;;;;;20.44;31.62;100942.30;104521;1104;72344;-63
2021/04/04 08:45:35;;;;;;;2.97;2.08;;;;;;;19.77;31.66;100930.02;104509;1104;84173;-65
2021/04/04 08:47:46;;;;;;;2.88;1.92;;;;;;;19.35;32.27;100937.38;104489;1103;77586;-65
2021/04/04 08:49:52;;;;;;;3.13;2.25;;;;;;;18.50;31.53;100932.20;104492;1104;64073;-68
2021/04/04 08:52:12;;;;;;;3.33;2.30;;;;;;;18.42;32.91;100929.73;104447;1104;81791;-70
2021/04/04 08:54:24;;;;;;;2.30;1.60;;;;;;;18.19;31.90;100923.03;104459;1104;71256;-67
2021/04/04 08:56:30;;;;;;;2.88;1.98;;;;;;;17.61;32.71;100918.94;104425;1104;83874;-62
2021/04/04 08:58:40;;;;;;;2.58;1.80;;;;;;;17.89;32.58;100913.03;104438;1104;77273;-62
2021/04/04 09:00:48;;;;;;;4.88;1.90;;;;;;;18.14;32.42;100916.57;104491;1104;64140;-66
2021/04/04 09:03:00;;;;;;;3.28;1.98;;;;;;;18.72;32.24;100911.52;104504;1104;81095;-67
2021/04/04 09:05:08;;;;;;;2.58;1.38;;;;;;;18.44;31.76;100906.55;104531;1104;71683;-65
2021/04/04 09:07:17;;;;;;;2.20;1.20;;;;;;;18.54;30.94;100917.02;104546;1104;83502;-64
2021/04/04 09:09:32;;;;;;;3.63;1.75;;;;;;;19.59;31.56;100910.05;104500;1104;78217;-65
2021/04/04 09:11:38;;;;;;;1.75;1.20;;;;;;;20.06;30.49;100909.02;104519;1104;64747;-64
2021/04/04 09:13:45;;;;;;;1.75;1.38;;;;;;;20.25;29.63;100910.59;104519;1104;81934;-64
2021/04/04 09:15:54;;;;;;;2.35;1.25;;;;;;;20.93;29.54;100909.84;104567;1104;71790;-66
2021/04/04 09:18:02;;;;;;;2.35;1.30;;;;;;;21.07;28.62;100917.56;104521;1104;84355;-66
2021/04/04 09:20:12;;;;;;;1.75;1.27;;;;;;;20.53;27.28;100912.58;104498;1104;77338;-66
2021/04/04 09:22:21;;;;;;;2.65;1.88;;;;;;;20.14;27.32;100914.14;104529;1104;64122;-68
2021/04/04 09:24:31;;;;;;;2.10;1.80;;;;;;;19.75;27.90;100909.39;104529;1104;82811;-66
2021/04/04 09:26:38;;;;;;;2.56;1.62;;;;;;;19.62;27.57;100904.94;104541;1104;71731;-67
2021/04/04 09:28:44;;;;;;;2.55;1.60;;;;;;;19.25;27.37;100895.19;104488;1103;84241;-68
2021/04/04 09:30:50;;;;;;;4.78;1.80;;;;;;;19.17;27.44;100896.34;104483;1104;77739;-71
2021/04/04 09:33:00;;;;;;;3.10;1.80;;;;;;;18.96;27.67;100896.02;104533;1104;63977;-68
2021/04/04 09:35:15;;;;;;;2.78;1.73;;;;;;;19.13;28.17;100899.78;104521;1104;82680;-68
2021/04/04 09:37:26;;;;;;;2.55;1.85;;;;;;;20.05;29.05;100893.66;104574;1103;71639;-67
2021/04/04 09:39:32;;;;;;;2.83;1.60;;;;;;;20.19;28.45;100897.80;104564;1104;84149;-66
2021/04/04 09:41:39;;;;;;;2.30;1.50;;;;;;;20.25;28.46;100888.64;104499;1104;78526;-64
2021/04/04 09:44:01;;;;;;;2.45;1.70;;;;;;;19.73;27.24;100887.67;104526;1104;64259;-65
2021/04/04 09:46:10;;;;;;;2.13;1.30;;;;;;;19.04;27.08;100890.22;104506;1104;81010;-67
2021/04/04 09:48:21;;;;;;;2.15;1.40;;;;;;;18.40;27.09;100880.73;104514;1103;71686;-67
2021/04/04 09:50:30;;;;;;;2.40;1.30;;;;;;;17.12;27.36;100897.84;104564;1103;83989;-67
2021/04/04 09:52:40;;;;;;;2.22;1.42;;;;;;;15.66;28.94;100898.52;104523;1104;79078;-67
2021/04/04 09:55:05;;;;;;;2.30;1.53;;;;;;;14.82;30.10;100896.48;104493;1104;64205;-65
2021/04/04 09:57:11;;;;;;;2.28;1.50;;;;;;;13.77;30.44;100894.04;104531;1104;82154;-67
2021/04/04 09:59:28;;;;;;;2.72;1.63;;;;;;;13.34;31.30;100892.44;104504;1103;71537;-65
2021/04/04 10:01:44;;;;;;;1.90;1.47;;;;;;;13.53;32.57;100886.34;104512;1104;84898;-65
2021/04/04 10:04:01;;;;;;;2.53;1.55;;;;;;;13.40;33.08;100880.81;104494;1104;77905;-69
2021/04/04 10:06:13;;;;;;;2.40;1.42;;;;;;;13.65;32.92;100873.08;104492;1104;64208;-67
2021/04/04 10:08:21;;;;;;;2.25;1.48;;;;;;;13.37;32.21;100871.19;104517;1103;82183;-67
2021/04/04 10:10:33;;;;;;;3.45;1.88;;;;;;;13.01;32.78;100867.68;104521;1104;72179;-64